Time;durP1;ratioP1;P1;durP2;ratioP2;P2;SDS_P1;SDS_P2;PMS_P1;PMS_P2;Temp;Humidity;BMP_temperature;BMP_pressure;BME280_temperature;BME280_humidity;BME280_pressure;Samples;Min_cycle;Max_cycle;Signal;HPM_P1;HPM_P2
2022/08/28 00:00:55;;;;;;;11.35;5.20;;;;;;;24.83;45.88;102001.78;5000463;28;20045;-73
2022/08/28 00:03:21;;;;;;;14.95;5.88;;;;;;;24.80;45.78;101999.50;4977708;28;20510;-73
2022/08/28 00:05:46;;;;;;;11.40;5.40;;;;;;;24.76;45.99;102000.84;5001292;28;20040;-75
2022/08/28 00:08:14;;;;;;;8.00;4.70;;;;;;;24.75;46.13;102002.69;5004843;28;20145;-73
2022/08/28 00:10:40;;;;;;;10.25;5.53;;;;;;;24.72;45.90;102003.06;4982716;28;20487;-73
2022/08/28 00:13:08;;;;;;;8.32;4.63;;;;;;;24.73;45.93;102004.72;4984819;28;20057;-75
2022/08/28 00:15:36;;;;;;;10.02;5.05;;;;;;;24.73;45.94;102007.38;5002253;28;20033;-75
2022/08/28 00:18:04;;;;;;;8.82;4.43;;;;;;;24.70;46.19;102008.56;5003184;28;20585;-75
2022/08/28 00:20:31;;;;;;;7.68;4.80;;;;;;;24.71;46.12;102015.56;5001414;28;20100;-72
2022/08/28 00:22:58;;;;;;;8.27;4.78;;;;;;;24.71;45.98;102014.72;4999169;28;20037;-75
2022/08/28 00:25:26;;;;;;;7.97;4.70;;;;;;;24.68;46.10;102015.09;5000252;28;20026;-72
2022/08/28 00:27:53;;;;;;;9.10;4.57;;;;;;;24.66;46.30;102019.78;4998322;28;20116;-75
2022/08/28 00:30:27;;;;;;;13.52;5.18;;;;;;;24.68;46.23;102015.09;4995272;28;20640;-72
2022/08/28 00:32:54;;;;;;;9.20;4.93;;;;;;;24.71;45.90;102012.06;4997999;28;20398;-73
2022/08/28 00:35:22;;;;;;;8.32;4.82;;;;;;;24.70;46.10;102013.91;4997185;28;20484;-74
2022/08/28 00:37:49;;;;;;;9.82;5.30;;;;;;;24.67;46.28;102010.78;4983120;28;20064;-75
2022/08/28 00:40:17;;;;;;;10.98;4.63;;;;;;;24.68;46.13;101999.94;4993652;28;20050;-73
2022/08/28 00:42:45;;;;;;;7.93;4.38;;;;;;;24.71;45.88;102010.22;4998880;28;20025;-73
2022/08/28 00:45:13;;;;;;;8.05;4.22;;;;;;;24.71;45.97;102004.91;4998260;28;20073;-74
2022/08/28 00:47:39;;;;;;;10.05;4.63;;;;;;;24.70;45.95;102003.25;5002651;28;20096;-75
2022/08/28 00:50:08;;;;;;;8.25;4.22;;;;;;;24.72;45.90;101995.06;4993165;28;20036;-75
2022/08/28 00:52:34;;;;;;;10.60;4.40;;;;;;;24.71;45.84;101996.09;4999101;28;20447;-75
2022/08/28 00:55:11;;;;;;;11.63;4.63;;;;;;;24.66;46.05;101993.16;4998837;28;20498;-73
2022/08/28 00:57:41;;;;;;;11.75;4.80;;;;;;;24.65;46.28;102002.16;5001745;28;20124;-73
2022/08/28 01:00:18;;;;;;;10.10;4.97;;;;;;;24.63;46.10;101988.19;4999080;28;20049;-74
2022/08/28 01:02:43;;;;;;;11.27;4.95;;;;;;;24.66;46.31;101990.50;4999023;28;20111;-75
2022/08/28 01:05:10;;;;;;;8.98;4.20;;;;;;;24.67;46.10;101989.47;4995080;28;20614;-75
2022/08/28 01:07:37;;;;;;;9.02;4.28;;;;;;;24.61;46.24;102004.38;5001863;28;20510;-75
2022/08/28 01:10:07;;;;;;;7.75;4.25;;;;;;;24.62;45.96;101992.69;4997783;28;20303;-75
2022/08/28 01:12:33;;;;;;;8.10;4.45;;;;;;;24.57;46.25;102000.38;4999657;28;20038;-73
2022/08/28 01:15:02;;;;;;;10.52;4.35;;;;;;;24.62;46.18;102005.19;4996302;28;20834;-75
2022/08/28 01:17:31;;;;;;;10.95;4.50;;;;;;;24.60;46.33;101999.22;4992965;28;20034;-72
2022/08/28 01:20:01;;;;;;;11.30;4.95;;;;;;;24.65;46.14;101994.16;4995613;28;20147;-75
2022/08/28 01:22:57;;;;;;;9.40;4.50;;;;;;;24.60;46.26;101993.91;4996263;28;20034;-75
2022/08/28 01:25:27;;;;;;;10.45;4.43;;;;;;;24.59;46.24;101994.88;4996310;28;20045;-77
2022/08/28 01:27:54;;;;;;;10.18;4.88;;;;;;;24.55;46.11;101988.28;4998266;28;20055;-75
2022/08/28 01:30:21;;;;;;;7.65;4.32;;;;;;;24.61;46.25;101990.22;4992806;28;20057;-73
2022/08/28 01:32:51;;;;;;;8.35;3.97;;;;;;;24.68;46.07;101996.47;4999829;28;20041;-74
2022/08/28 01:35:23;;;;;;;10.70;4.80;;;;;;;24.62;46.15;101989.22;4997561;28;20104;-74
2022/08/28 01:37:48;;;;;;;7.28;3.85;;;;;;;24.61;46.03;101990.22;5001491;28;20081;-73
2022/08/28 01:40:19;;;;;;;9.80;3.60;;;;;;;24.60;46.10;101983.25;4998664;28;20082;-73
2022/08/28 01:42:45;;;;;;;8.90;4.20;;;;;;;24.57;46.14;101992.41;5006413;28;20044;-75
2022/08/28 01:45:18;;;;;;;7.82;3.90;;;;;;;24.58;45.83;101990.56;5001828;28;20042;-72
2022/08/28 01:47:44;;;;;;;9.13;4.10;;;;;;;24.59;45.95;101992.22;5002467;28;20030;-73
2022/08/28 01:50:13;;;;;;;8.77;4.00;;;;;;;24.55;46.05;101990.94;4977458;28;20038;-73
2022/08/28 01:52:39;;;;;;;7.22;3.80;;;;;;;24.56;46.04;101990.75;5000709;28;20133;-73
2022/08/28 01:55:05;;;;;;;8.10;4.00;;;;;;;24.52;46.16;101992.13;5000610;28;20129;-73
2022/08/28 01:57:31;;;;;;;8.68;3.65;;;;;;;24.52;46.23;101989.47;5005148;28;20041;-73
2022/08/28 01:59:57;;;;;;;7.57;3.85;;;;;;;24.52;46.22;101993.97;4985104;28;20038;-72
2022/08/28 02:02:23;;;;;;;8.10;3.83;;;;;;;24.51;46.05;101997.66;5001382;28;20046;-70
2022/08/28 02:04:48;;;;;;;9.45;3.97;;;;;;;24.49;46.40;102002.34;5001603;28;20080;-70
2022/08/28 02:07:15;;;;;;;9.93;4.30;;;;;;;24.50;46.33;102002.16;4997630;28;20479;-69
2022/08/28 02:09:42;;;;;;;7.93;3.85;;;;;;;24.51;46.36;101997.66;4999080;28;20057;-69
2022/08/28 02:12:08;;;;;;;7.05;3.70;;;;;;;24.52;46.28;101999.31;4979997;28;20045;-69
2022/08/28 02:14:33;;;;;;;6.57;3.65;;;;;;;24.54;46.21;101998.09;5000417;28;20092;-69
2022/08/28 02:16:59;;;;;;;9.40;4.07;;;;;;;24.52;45.88;102000.13;5002373;28;20392;-69
2022/08/28 02:19:24;;;;;;;8.83;4.20;;;;;;;24.43;46.06;101985.25;4961061;28;1083582;-69
2022/08/28 02:21:50;;;;;;;7.22;3.50;;;;;;;24.48;46.33;101998.00;5002822;28;20491;-69
2022/08/28 02:24:16;;;;;;;6.43;3.50;;;;;;;24.51;46.29;102000.31;5002167;28;20049;-69
2022/08/28 02:26:43;;;;;;;7.07;3.80;;;;;;;24.50;46.26;102002.16;5002441;28;20034;-69
2022/08/28 02:29:10;;;;;;;6.97;3.90;;;;;;;24.46;46.21;102000.88;4996059;28;20038;-69
2022/08/28 02:31:36;;;;;;;7.07;3.85;;;;;;;24.46;46.35;102006.19;4999752;28;20042;-69
2022/08/28 02:34:02;;;;;;;9.88;3.70;;;;;;;24.43;46.44;102008.41;4997881;28;20096;-69
2022/08/28 02:36:28;;;;;;;6.55;3.88;;;;;;;24.46;46.18;102008.84;5003027;28;20613;-69
2022/08/28 02:38:53;;;;;;;6.88;4.03;;;;;;;24.50;46.30;102009.31;5000606;28;20072;-69
2022/08/28 02:41:19;;;;;;;9.95;3.70;;;;;;;24.47;46.14;102001.69;4997946;28;20129;-69
2022/08/28 02:43:45;;;;;;;8.60;3.80;;;;;;;24.43;46.36;101993.25;5000402;28;20033;-70
2022/08/28 02:46:11;;;;;;;7.15;3.60;;;;;;;24.44;46.23;101996.72;5002877;28;20052;-70
2022/08/28 02:48:38;;;;;;;5.28;3.25;;;;;;;24.43;46.27;102003.06;5001768;28;20120;-69
2022/08/28 02:51:07;;;;;;;8.48;3.85;;;;;;;24.46;46.24;102000.03;4999869;28;20034;-69
2022/08/28 02:53:33;;;;;;;;;;;;;;;24.39;46.30;101997.25;5003106;28;20191;-69
2022/08/28 02:56:12;;;;;;;8.13;4.10;;;;;;;24.35;46.13;101985.31;4996278;28;19932;-69
2022/08/28 02:58:39;;;;;;;6.00;3.50;;;;;;;24.37;46.37;102002.75;5004146;28;20175;-69
2022/08/28 03:01:08;;;;;;;6.80;3.38;;;;;;;24.41;46.29;101995.22;4978848;28;20038;-69
2022/08/28 03:03:34;;;;;;;7.53;3.73;;;;;;;24.41;46.18;102003.22;4999163;28;20034;-69
2022/08/28 03:06:01;;;;;;;6.88;3.20;;;;;;;24.33;46.28;101995.34;4998526;28;20098;-69
2022/08/28 03:08:28;;;;;;;7.43;3.33;;;;;;;24.40;46.13;102004.22;4999281;28;20072;-69
2022/08/28 03:10:54;;;;;;;7.97;3.10;;;;;;;24.41;46.15;102003.22;4994696;28;20089;-69
2022/08/28 03:13:19;;;;;;;9.65;3.65;;;;;;;24.40;46.15;102002.41;5001377;28;20675;-69
2022/08/28 03:15:46;;;;;;;6.75;3.50;;;;;;;24.35;46.22;102003.97;5001799;28;20042;-69
2022/08/28 03:18:13;;;;;;;7.65;3.38;;;;;;;24.36;46.21;102002.94;5003678;28;20527;-69
2022/08/28 03:20:40;;;;;;;9.27;4.18;;;;;;;24.34;46.24;102005.78;4996360;28;20618;-69
2022/08/28 03:23:25;;;;;;;8.18;3.55;;;;;;;24.40;46.00;102002.41;5006353;28;20040;-69
2022/08/28 03:25:59;;;;;;;7.95;4.30;;;;;;;24.36;46.09;102001.13;4998668;28;20041;-69
2022/08/28 03:28:27;;;;;;;7.90;3.08;;;;;;;24.34;46.20;102004.97;5001490;28;20764;-69
2022/08/28 03:30:53;;;;;;;5.40;3.35;;;;;;;24.32;46.31;102007.00;4998135;28;20050;-69
2022/08/28 03:33:19;;;;;;;8.80;4.03;;;;;;;24.38;46.10;102011.56;5002531;28;20141;-69
2022/08/28 03:35:45;;;;;;;7.63;3.70;;;;;;;24.30;46.20;102001.84;4997018;28;20050;-70
2022/08/28 03:38:11;;;;;;;6.57;3.67;;;;;;;24.28;46.17;102003.84;5001019;28;20187;-69
2022/08/28 03:40:41;;;;;;;7.53;3.55;;;;;;;24.35;46.16;102012.78;5000811;28;20042;-69
2022/08/28 03:43:12;;;;;;;9.00;3.67;;;;;;;24.33;46.26;102016.63;4997108;28;20038;-69
2022/08/28 03:45:38;;;;;;;8.25;3.90;;;;;;;24.35;46.07;102010.13;4999398;28;20033;-69
2022/08/28 03:48:03;;;;;;;6.18;3.17;;;;;;;24.30;46.24;102011.66;4999365;28;20037;-69
2022/08/28 03:50:30;;;;;;;6.05;3.28;;;;;;;24.29;46.30;102020.66;4999014;28;20042;-69
2022/08/28 03:52:55;;;;;;;7.95;3.40;;;;;;;24.36;46.05;102010.94;4999910;28;20034;-69
2022/08/28 03:55:21;;;;;;;6.07;3.80;;;;;;;24.32;46.16;102010.47;4998480;28;20033;-69
2022/08/28 03:57:47;;;;;;;8.18;3.67;;;;;;;24.30;46.29;102011.66;5002311;28;20042;-69
2022/08/28 04:00:15;;;;;;;8.15;3.58;;;;;;;24.23;46.29;102006.19;4997530;28;20037;-69
2022/08/28 04:02:43;;;;;;;6.90;3.65;;;;;;;24.30;46.30;102011.66;4996343;28;20056;-69
2022/08/28 04:05:09;;;;;;;7.60;3.30;;;;;;;24.27;46.18;102007.50;4994502;28;20037;-69
2022/08/28 04:07:34;;;;;;;8.20;3.30;;;;;;;24.32;46.11;102014.97;5002126;28;20363;-69
2022/08/28 04:10:00;;;;;;;4.75;3.10;;;;;;;24.29;46.11;102016.16;4995744;28;20054;-69
2022/08/28 04:12:25;;;;;;;6.43;3.58;;;;;;;24.27;46.12;102017.31;4982488;28;20658;-69
2022/08/28 04:14:51;;;;;;;6.72;3.28;;;;;;;24.26;46.09;102016.50;4999046;28;20053;-69
2022/08/28 04:17:16;;;;;;;7.30;3.60;;;;;;;24.28;46.19;102025.13;4999490;28;20117;-69
2022/08/28 04:19:43;;;;;;;9.27;3.15;;;;;;;24.11;46.36;102013.81;4995988;28;20053;-69
2022/08/28 04:22:09;;;;;;;5.45;2.90;;;;;;;24.28;46.14;102027.78;4998505;28;20583;-71
2022/08/28 04:24:35;;;;;;;5.25;2.83;;;;;;;24.26;46.34;102029.81;5000577;28;20060;-69
2022/08/28 04:27:00;;;;;;;6.10;3.50;;;;;;;24.23;46.28;102031.97;5000412;28;20192;-69
2022/08/28 04:29:26;;;;;;;6.03;3.55;;;;;;;24.18;46.10;102027.22;4995390;28;20038;-69
2022/08/28 04:31:51;;;;;;;8.73;3.05;;;;;;;24.22;46.05;102031.16;5002763;28;20730;-69
2022/08/28 04:34:17;;;;;;;6.72;3.30;;;;;;;24.25;46.16;102028.16;4995294;28;20038;-70
2022/08/28 04:36:42;;;;;;;6.72;3.28;;;;;;;24.23;46.06;102024.00;5002311;28;20037;-70
2022/08/28 04:39:09;;;;;;;6.25;3.00;;;;;;;24.19;46.14;102034.19;5000376;28;20297;-70
2022/08/28 04:41:38;;;;;;;6.85;2.97;;;;;;;24.23;46.27;102034.66;4998367;28;20057;-70
2022/08/28 04:44:05;;;;;;;6.23;3.20;;;;;;;24.20;46.06;102032.34;5000067;28;20403;-70
2022/08/28 04:46:31;;;;;;;5.13;3.13;;;;;;;24.16;46.16;102034.53;4996016;28;20054;-70
2022/08/28 04:48:57;;;;;;;6.97;3.00;;;;;;;24.08;46.53;102045.28;4998851;28;20049;-70
2022/08/28 04:51:22;;;;;;;5.65;3.03;;;;;;;24.17;46.24;102030.03;4996342;28;20026;-70
2022/08/28 04:53:48;;;;;;;6.97;3.65;;;;;;;24.17;46.21;102041.53;5001047;28;20045;-71
2022/08/28 04:56:14;;;;;;;8.13;3.53;;;;;;;24.16;46.24;102055.00;5000138;28;20046;-70
2022/08/28 04:58:41;;;;;;;6.00;3.13;;;;;;;24.22;46.07;102039.13;4999345;28;20061;-70
2022/08/28 05:01:14;;;;;;;7.47;3.42;;;;;;;24.22;46.06;102052.44;5001526;28;20041;-70
2022/08/28 05:03:40;;;;;;;7.35;3.58;;;;;;;24.18;46.14;102060.97;4996945;28;20065;-70
2022/08/28 05:06:06;;;;;;;8.75;3.35;;;;;;;24.15;46.15;102054.19;4997848;28;20164;-70
2022/08/28 05:08:32;;;;;;;8.52;3.25;;;;;;;24.20;46.01;102058.97;4995964;28;20061;-70
2022/08/28 05:11:09;;;;;;;8.27;3.47;;;;;;;24.22;46.08;102054.28;4994457;28;20046;-70
2022/08/28 05:13:35;;;;;;;8.20;3.00;;;;;;;24.15;46.04;102061.34;4996337;28;20141;-70
2022/08/28 05:16:03;;;;;;;7.00;3.40;;;;;;;24.20;46.11;102070.44;4995746;28;20500;-70
2022/08/28 05:18:28;;;;;;;5.00;3.10;;;;;;;24.10;46.25;102073.34;4995502;28;20397;-70
2022/08/28 05:20:54;;;;;;;6.30;3.00;;;;;;;24.15;46.17;102069.31;4966260;28;20049;-70
2022/08/28 05:23:19;;;;;;;5.50;2.97;;;;;;;24.17;45.96;102059.31;4997887;28;20049;-70
2022/08/28 05:25:47;;;;;;;5.88;2.60;;;;;;;24.21;45.90;102064.09;4995936;28;20050;-70
2022/08/28 05:28:15;;;;;;;5.40;3.05;;;;;;;24.11;46.02;102061.69;4999796;28;20048;-70
2022/08/28 05:30:42;;;;;;;7.85;3.08;;;;;;;24.14;46.09;102060.50;4997145;28;20045;-70
2022/08/28 05:33:09;;;;;;;6.75;3.38;;;;;;;24.12;46.04;102062.53;4996262;28;20128;-70
2022/08/28 05:35:37;;;;;;;4.82;2.70;;;;;;;24.11;46.12;102060.88;4978113;28;20048;-71
2022/08/28 05:38:04;;;;;;;4.55;2.90;;;;;;;24.09;46.11;102061.06;4997247;28;20060;-71
2022/08/28 05:40:30;;;;;;;7.10;3.00;;;;;;;24.10;46.14;102068.03;4996277;28;20041;-70
2022/08/28 05:42:55;;;;;;;6.88;3.30;;;;;;;24.10;46.05;102065.38;4995732;28;20048;-70
2022/08/28 05:45:22;;;;;;;6.82;3.45;;;;;;;24.07;46.32;102063.06;4996705;28;20049;-69
2022/08/28 05:47:48;;;;;;;6.75;3.20;;;;;;;24.10;45.94;102068.03;4996548;28;20085;-69
2022/08/28 05:50:14;;;;;;;7.15;3.15;;;;;;;24.10;45.75;102059.22;4993648;28;20380;-70
2022/08/28 05:52:41;;;;;;;8.50;3.00;;;;;;;24.07;45.99;102063.06;4995120;28;20139;-70
2022/08/28 05:55:09;;;;;;;8.45;3.60;;;;;;;24.06;46.11;102066.75;4994366;28;20045;-70
2022/08/28 05:57:34;;;;;;;5.32;3.08;;;;;;;24.00;46.04;102051.47;4997273;28;20526;-70
2022/08/28 06:00:01;;;;;;;4.38;2.80;;;;;;;24.04;45.93;102062.56;4995846;28;20046;-70
2022/08/28 06:02:26;;;;;;;7.72;3.33;;;;;;;24.07;45.92;102068.41;4994888;28;20151;-69
2022/08/28 06:04:53;;;;;;;5.88;2.95;;;;;;;24.06;45.91;102066.75;4993944;28;20041;-70
2022/08/28 06:07:19;;;;;;;4.93;2.67;;;;;;;24.05;45.85;102057.06;4978953;28;20157;-70
2022/08/28 06:09:44;;;;;;;4.55;2.70;;;;;;;24.07;45.72;102060.41;4993626;28;20833;-70
2022/08/28 06:12:10;;;;;;;7.03;2.85;;;;;;;24.11;45.48;102066.19;4996080;28;20037;-70
2022/08/28 06:14:36;;;;;;;7.22;2.95;;;;;;;24.09;45.61;102071.69;4977355;28;20045;-70
2022/08/28 06:17:02;;;;;;;6.57;2.90;;;;;;;24.09;45.62;102076.19;4994500;28;20033;-70
2022/08/28 06:19:30;;;;;;;6.30;3.08;;;;;;;24.06;45.51;102077.38;4998921;28;20053;-70
2022/08/28 06:21:58;;;;;;;6.65;2.55;;;;;;;24.01;45.77;102077.06;4985452;28;20044;-70
2022/08/28 06:24:26;;;;;;;10.18;3.38;;;;;;;23.96;45.68;102066.13;4996036;28;20139;-70
2022/08/28 06:26:51;;;;;;;5.43;2.85;;;;;;;24.06;45.78;102081.88;5001253;28;20452;-70
2022/08/28 06:29:18;;;;;;;5.30;2.78;;;;;;;24.16;45.27;102082.44;4993845;28;20053;-70
2022/08/28 06:31:44;;;;;;;6.72;3.03;;;;;;;24.16;45.39;102081.63;4998799;28;20052;-70
2022/08/28 06:34:09;;;;;;;6.07;2.92;;;;;;;24.17;45.16;102084.09;5000634;28;20065;-70
2022/08/28 06:36:39;;;;;;;6.20;3.25;;;;;;;24.19;45.19;102090.06;4966954;28;20546;-70
2022/08/28 06:39:05;;;;;;;8.45;2.90;;;;;;;24.21;45.25;102090.72;5001951;28;20030;-70
2022/08/28 06:41:32;;;;;;;4.78;2.53;;;;;;;24.22;45.02;102092.38;4998121;28;20092;-70
2022/08/28 06:43:58;;;;;;;7.63;3.03;;;;;;;24.17;45.04;102081.44;4999203;28;20050;-70
2022/08/28 06:46:25;;;;;;;6.60;2.70;;;;;;;24.15;45.32;102087.94;4983305;28;20391;-70
2022/08/28 06:48:51;;;;;;;5.82;3.03;;;;;;;24.16;45.27;102086.94;4996549;28;20030;-70
2022/08/28 06:51:18;;;;;;;7.97;2.90;;;;;;;24.17;45.39;102086.75;4998549;28;20042;-70
2022/08/28 06:53:45;;;;;;;7.95;3.05;;;;;;;24.10;45.57;102089.31;4995378;28;20068;-70
2022/08/28 06:56:14;;;;;;;4.45;2.47;;;;;;;24.10;45.51;102088.50;4999690;28;20892;-70
2022/08/28 06:58:42;;;;;;;6.60;2.50;;;;;;;24.09;45.33;102084.19;4995707;28;20041;-70
2022/08/28 07:01:15;;;;;;;6.47;2.70;;;;;;;24.19;44.89;102083.94;4996675;28;20042;-70
2022/08/28 07:03:41;;;;;;;10.48;3.35;;;;;;;24.17;44.90;102091.25;4996725;28;20176;-70
2022/08/28 07:06:09;;;;;;;5.78;2.58;;;;;;;24.24;44.51;102089.56;4999954;28;20042;-70
2022/08/28 07:08:35;;;;;;;5.85;2.85;;;;;;;24.25;44.42;102093.88;4994598;28;20460;-69
2022/08/28 07:11:16;;;;;;;9.55;2.78;;;;;;;24.28;44.28;102094.34;4981436;28;20599;-70
2022/08/28 07:13:43;;;;;;;6.85;2.60;;;;;;;24.34;44.24;102090.97;4998469;28;20033;-70
2022/08/28 07:16:09;;;;;;;6.90;3.08;;;;;;;24.41;44.22;102094.56;4997495;28;20062;-70
2022/08/28 07:18:35;;;;;;;6.25;2.60;;;;;;;24.42;44.03;102098.09;4992589;28;20058;-70
2022/08/28 07:21:01;;;;;;;9.60;2.70;;;;;;;24.41;43.79;102093.75;4994782;28;20608;-70
2022/08/28 07:23:29;;;;;;;8.75;2.67;;;;;;;24.49;43.76;102095.53;4981679;28;20037;-70
2022/08/28 07:25:54;;;;;;;5.55;2.78;;;;;;;24.51;43.74;102091.66;4994014;28;20551;-70
2022/08/28 07:28:20;;;;;;;5.03;2.67;;;;;;;24.51;43.84;102102.31;4972572;28;20108;-70
2022/08/28 07:30:56;;;;;;;8.80;2.75;;;;;;;24.51;44.20;102096.16;4996802;28;20042;-70
2022/08/28 07:33:22;;;;;;;8.95;2.95;;;;;;;24.52;44.40;102103.16;4996344;28;20133;-70
2022/08/28 07:35:49;;;;;;;9.98;3.00;;;;;;;24.48;44.31;102112.50;4982747;28;20033;-67
2022/08/28 07:38:15;;;;;;;13.77;2.90;;;;;;;24.37;43.90;102114.56;4978755;28;20034;-67
2022/08/28 07:40:40;;;;;;;6.88;2.80;;;;;;;24.32;43.74;102116.97;4983093;28;20483;-67
2022/08/28 07:46:01;;;;;;;6.53;2.47;;;;;;;24.27;43.26;102121.97;4999784;28;20152;-67
2022/08/28 07:48:26;;;;;;;7.22;2.45;;;;;;;24.30;43.04;102121.63;4995705;28;20052;-67
2022/08/28 07:50:52;;;;;;;8.75;2.75;;;;;;;24.32;42.74;102129.44;4998727;28;20388;-67
2022/08/28 07:53:18;;;;;;;7.50;3.40;;;;;;;24.26;42.70;102128.31;4998140;28;20042;-67
2022/08/28 07:55:43;;;;;;;9.95;2.97;;;;;;;24.29;42.89;102130.63;4981447;28;20065;-67
2022/08/28 07:58:12;;;;;;;11.20;2.97;;;;;;;24.30;42.52;102128.78;5000634;28;20034;-67
2022/08/28 08:00:37;;;;;;;7.63;2.60;;;;;;;24.38;43.00;102123.41;4995852;28;20061;-69
2022/08/28 08:03:03;;;;;;;9.38;3.08;;;;;;;24.40;42.64;102122.19;4996432;28;20412;-68
2022/08/28 08:05:29;;;;;;;10.60;2.80;;;;;;;24.29;42.24;102109.34;4997897;28;20211;-68
2022/08/28 08:07:55;;;;;;;10.02;3.10;;;;;;;24.34;42.13;102124.75;4995717;28;20196;-68
2022/08/28 08:10:21;;;;;;;8.95;2.83;;;;;;;24.36;41.98;102134.22;4999233;28;20053;-68
2022/08/28 08:12:47;;;;;;;6.72;2.45;;;;;;;24.38;41.99;102129.53;4997780;28;20045;-68
2022/08/28 08:15:13;;;;;;;5.53;2.80;;;;;;;24.38;41.85;102134.03;4995196;28;20581;-68
2022/08/28 08:17:39;;;;;;;11.80;2.83;;;;;;;24.34;41.63;102135.41;5003324;28;21297;-68
2022/08/28 08:20:07;;;;;;;9.70;3.00;;;;;;;24.30;41.44;102139.44;4985316;28;20042;-68
2022/08/28 08:22:33;;;;;;;9.90;2.95;;;;;;;24.32;41.19;102138.25;4997324;28;20120;-68
2022/08/28 08:24:59;;;;;;;9.43;3.10;;;;;;;24.28;41.37;102144.09;4998546;28;20080;-68
2022/08/28 08:27:26;;;;;;;8.35;2.83;;;;;;;24.32;41.26;102145.41;4999119;28;20046;-67
2022/08/28 08:29:51;;;;;;;5.28;2.60;;;;;;;24.35;41.07;102148.53;4998618;28;20427;-67
2022/08/28 08:32:17;;;;;;;7.70;3.22;;;;;;;24.28;41.21;102147.56;4997838;28;20123;-68
2022/08/28 08:34:44;;;;;;;5.32;2.85;;;;;;;24.29;41.94;102156.41;4996943;28;20077;-67
2022/08/28 08:37:12;;;;;;;9.55;2.75;;;;;;;24.33;41.37;102155.06;4994302;28;20125;-67
2022/08/28 08:39:39;;;;;;;9.98;3.13;;;;;;;24.34;41.36;102140.75;4997696;28;20034;-67
2022/08/28 08:42:17;;;;;;;8.15;3.22;;;;;;;24.36;41.58;102146.72;4997174;28;20052;-66
2022/08/28 08:44:46;;;;;;;8.50;3.35;;;;;;;24.38;42.07;102150.00;4994580;28;20030;-69
2022/08/28 08:47:11;;;;;;;7.25;2.75;;;;;;;24.37;41.81;102161.69;4997224;28;20578;-69
2022/08/28 08:49:48;;;;;;;21.70;3.17;;;;;;;24.30;42.19;102158.91;4997326;28;20033;-69
2022/08/28 08:52:25;;;;;;;12.77;3.35;;;;;;;24.28;42.69;102147.56;4994534;28;20037;-69
2022/08/28 08:55:13;;;;;;;9.02;3.03;;;;;;;24.35;43.00;102155.69;4995222;28;20056;-69
2022/08/28 08:57:39;;;;;;;8.20;3.20;;;;;;;24.31;43.09;102159.72;4998838;28;20124;-69
2022/08/28 09:00:10;;;;;;;11.13;2.80;;;;;;;24.37;43.46;102151.84;4997188;28;20748;-69
2022/08/28 09:02:43;;;;;;;9.48;2.92;;;;;;;24.39;43.79;102167.66;4995125;28;20026;-69
2022/08/28 09:05:15;;;;;;;10.40;3.17;;;;;;;24.37;43.83;102162.50;4993464;28;20073;-69
2022/08/28 09:07:52;;;;;;;8.15;2.72;;;;;;;24.36;44.30;102166.16;4991016;28;20041;-69
2022/08/28 09:10:18;;;;;;;10.88;3.08;;;;;;;24.39;44.32;102165.81;4996952;28;20096;-69
2022/08/28 09:13:01;;;;;;;10.65;3.47;;;;;;;24.44;43.76;102154.66;4994900;28;20042;-69
2022/08/28 09:15:32;;;;;;;9.18;2.92;;;;;;;24.34;43.35;102157.53;4997789;28;20120;-69
2022/08/28 09:18:23;;;;;;;10.25;3.53;;;;;;;24.37;43.52;102162.50;4998078;28;20058;-69
2022/08/28 09:20:51;;;;;;;9.52;2.92;;;;;;;24.37;43.26;102167.00;4999906;28;20049;-69
2022/08/28 09:23:17;;;;;;;10.50;2.75;;;;;;;24.29;43.11;102175.88;4980178;28;20103;-70
2022/08/28 09:25:49;;;;;;;12.95;3.15;;;;;;;24.22;42.85;102174.88;4998427;28;20050;-69
2022/08/28 09:28:23;;;;;;;11.38;3.28;;;;;;;24.29;42.86;102165.25;4998595;28;20041;-69
2022/08/28 09:31:02;;;;;;;10.55;3.55;;;;;;;24.31;43.82;102168.53;4987515;28;20057;-69
2022/08/28 09:33:34;;;;;;;9.35;3.08;;;;;;;24.27;43.64;102156.56;4995348;28;20088;-69
2022/08/28 09:36:26;;;;;;;7.43;2.90;;;;;;;24.32;43.30;102169.38;4997193;28;20038;-69
2022/08/28 09:39:15;;;;;;;7.50;3.13;;;;;;;24.39;42.32;102175.63;4980343;28;20071;-69
2022/08/28 09:44:32;;;;;;;6.03;3.28;;;;;;;24.22;41.42;102174.06;5001823;28;20041;-69
2022/08/28 09:46:58;;;;;;;11.93;3.58;;;;;;;24.18;41.64;102176.25;4997233;28;20108;-69
2022/08/28 09:49:28;;;;;;;6.45;3.00;;;;;;;24.16;41.79;102180.91;4996674;28;20056;-69
2022/08/28 09:51:58;;;;;;;9.82;3.25;;;;;;;24.25;42.32;102181.72;5001002;28;20034;-69
2022/08/28 09:54:30;;;;;;;7.38;2.83;;;;;;;24.25;41.84;102171.91;5001871;28;20108;-69
2022/08/28 09:56:56;;;;;;;8.07;3.35;;;;;;;24.20;42.46;102166.25;4999016;28;20029;-69
2022/08/28 09:59:24;;;;;;;8.98;3.33;;;;;;;24.24;41.68;102174.75;4996895;28;20057;-69
2022/08/28 10:02:04;;;;;;;10.68;3.45;;;;;;;24.19;41.37;102180.56;5001087;28;20033;-70
2022/08/28 10:04:59;;;;;;;11.05;3.38;;;;;;;24.14;41.08;102176.78;4997236;28;20103;-69
2022/08/28 10:07:46;;;;;;;9.88;3.30;;;;;;;24.13;41.91;102175.97;5003803;28;20042;-69
2022/08/28 10:10:39;;;;;;;10.68;2.97;;;;;;;24.19;41.71;102169.09;4998014;28;20050;-67
2022/08/28 10:13:36;;;;;;;10.95;3.10;;;;;;;24.26;42.31;102178.03;4995625;28;20439;-68
2022/08/28 10:16:21;;;;;;;9.10;3.58;;;;;;;24.30;41.89;102171.38;4980935;28;20050;-67
2022/08/28 10:19:04;;;;;;;9.35;3.20;;;;;;;24.31;41.75;102186.34;4978956;28;20433;-67
2022/08/28 10:21:43;;;;;;;9.65;2.92;;;;;;;24.24;42.13;102178.22;4970096;28;20049;-67
2022/08/28 10:24:30;;;;;;;9.88;3.38;;;;;;;24.29;41.93;102169.72;4995941;28;20045;-67
2022/08/28 10:27:04;;;;;;;7.35;3.13;;;;;;;24.26;42.03;102168.22;5002024;28;20046;-67
2022/08/28 10:29:46;;;;;;;7.18;3.05;;;;;;;24.25;42.07;102174.56;5000286;28;20782;-67
2022/08/28 10:32:20;;;;;;;10.55;3.15;;;;;;;24.28;42.13;102176.88;4999723;28;20456;-67
2022/08/28 10:35:04;;;;;;;6.97;2.83;;;;;;;24.29;42.09;102180.38;4997945;28;20050;-67
2022/08/28 10:37:56;;;;;;;10.70;3.92;;;;;;;24.28;42.25;102184.84;4997862;28;20131;-67
2022/08/28 10:40:40;;;;;;;9.27;3.00;;;;;;;24.32;42.18;102175.53;4999081;28;20160;-67
2022/08/28 10:43:13;;;;;;;11.07;3.05;;;;;;;24.28;42.30;102170.72;5001991;28;20531;-67
2022/08/28 10:45:40;;;;;;;13.25;3.22;;;;;;;24.32;42.33;102178.19;5001612;28;20133;-67
2022/08/28 10:48:30;;;;;;;7.75;3.10;;;;;;;24.31;41.99;102187.19;4998746;28;20444;-67
2022/08/28 10:51:01;;;;;;;12.02;4.03;;;;;;;24.30;41.68;102187.34;5001779;28;20143;-67
2022/08/28 10:53:53;;;;;;;9.27;3.33;;;;;;;24.31;41.53;102181.03;5004210;28;20037;-67
2022/08/28 10:56:24;;;;;;;10.95;3.63;;;;;;;24.26;41.40;102191.34;5000288;28;20480;-67
2022/08/28 10:58:56;;;;;;;9.07;3.88;;;;;;;24.29;41.18;102180.38;5002682;28;20049;-66
2022/08/28 11:01:37;;;;;;;6.28;3.05;;;;;;;24.20;41.19;102170.75;5002854;28;20045;-67
2022/08/28 11:04:08;;;;;;;12.27;3.00;;;;;;;24.27;41.11;102171.72;4982346;28;20030;-68
2022/08/28 11:07:01;;;;;;;9.43;3.35;;;;;;;24.17;41.47;102163.13;5000847;28;20046;-67
2022/08/28 11:09:34;;;;;;;6.43;2.90;;;;;;;24.23;41.68;102165.06;5002052;28;20041;-67
2022/08/28 11:12:28;;;;;;;7.20;3.30;;;;;;;24.20;41.63;102162.75;5003319;28;20030;-67
2022/08/28 11:14:53;;;;;;;10.77;3.53;;;;;;;24.33;41.14;102171.84;4983416;28;20491;-67
2022/08/28 11:17:24;;;;;;;6.97;2.92;;;;;;;24.27;41.27;102174.38;5001431;28;20040;-67
2022/08/28 11:20:08;;;;;;;9.68;3.22;;;;;;;24.24;41.24;102177.41;5000148;28;20073;-67
2022/08/28 11:22:45;;;;;;;8.43;3.13;;;;;;;24.30;41.10;102179.38;5000404;28;20683;-67
2022/08/28 11:25:25;;;;;;;9.93;3.08;;;;;;;24.35;41.12;102179.66;4999488;28;20077;-67
2022/08/28 11:28:24;;;;;;;8.05;3.30;;;;;;;24.22;41.18;102179.38;5000120;28;20112;-67
2022/08/28 11:31:05;;;;;;;10.23;3.42;;;;;;;24.27;41.32;102190.34;5000103;28;20033;-67
2022/08/28 11:33:36;;;;;;;8.40;2.83;;;;;;;24.25;40.67;102182.53;5002606;28;20361;-67
2022/08/28 11:36:07;;;;;;;10.68;3.20;;;;;;;24.25;40.91;102179.88;4999281;28;20049;-67
2022/08/28 11:38:39;;;;;;;7.13;3.10;;;;;;;24.23;40.97;102183.69;5000414;28;20125;-68
2022/08/28 11:41:25;;;;;;;7.70;3.28;;;;;;;24.22;41.13;102187.38;5000977;28;20067;-67